sensor_id;sensor_type;location;lat;lon;timestamp;P1;durP1;ratioP1;P2;durP2;ratioP2
49103;SDS011;34915;52.926;11.116;2022-10-31T00:00:50;5.07;;;3.47;;
49103;SDS011;34915;52.926;11.116;2022-10-31T00:03:16;6.63;;;3.77;;
49103;SDS011;34915;52.926;11.116;2022-10-31T00:05:46;10.10;;;4.17;;
49103;SDS011;34915;52.926;11.116;2022-10-31T00:08:16;5.00;;;3.63;;
49103;SDS011;34915;52.926;11.116;2022-10-31T00:10:43;10.53;;;4.40;;
49103;SDS011;34915;52.926;11.116;2022-10-31T00:13:10;7.60;;;3.63;;
49103;SDS011;34915;52.926;11.116;2022-10-31T00:15:37;5.23;;;3.97;;
49103;SDS011;34915;52.926;11.116;2022-10-31T00:18:07;5.70;;;3.97;;
49103;SDS011;34915;52.926;11.116;2022-10-31T00:20:38;4.93;;;3.37;;
49103;SDS011;34915;52.926;11.116;2022-10-31T00:23:03;5.83;;;3.90;;
49103;SDS011;34915;52.926;11.116;2022-10-31T00:25:34;5.87;;;3.57;;
49103;SDS011;34915;52.926;11.116;2022-10-31T00:28:03;9.27;;;3.87;;
49103;SDS011;34915;52.926;11.116;2022-10-31T00:30:33;7.87;;;3.60;;
49103;SDS011;34915;52.926;11.116;2022-10-31T00:32:59;7.60;;;3.47;;
49103;SDS011;34915;52.926;11.116;2022-10-31T00:35:27;5.07;;;3.70;;
49103;SDS011;34915;52.926;11.116;2022-10-31T00:37:53;6.80;;;3.97;;
49103;SDS011;34915;52.926;11.116;2022-10-31T00:40:19;6.40;;;3.70;;
49103;SDS011;34915;52.926;11.116;2022-10-31T00:42:47;4.60;;;3.10;;
49103;SDS011;34915;52.926;11.116;2022-10-31T00:45:13;4.27;;;3.17;;
49103;SDS011;34915;52.926;11.116;2022-10-31T00:47:41;4.73;;;3.17;;
49103;SDS011;34915;52.926;11.116;2022-10-31T00:50:07;6.27;;;3.70;;
49103;SDS011;34915;52.926;11.116;2022-10-31T00:52:33;6.57;;;3.67;;
49103;SDS011;34915;52.926;11.116;2022-10-31T00:55:00;6.97;;;3.27;;
49103;SDS011;34915;52.926;11.116;2022-10-31T00:57:25;7.77;;;3.70;;
49103;SDS011;34915;52.926;11.116;2022-10-31T00:59:51;6.67;;;3.33;;
49103;SDS011;34915;52.926;11.116;2022-10-31T01:02:19;5.60;;;3.40;;
49103;SDS011;34915;52.926;11.116;2022-10-31T01:04:48;8.10;;;3.90;;
49103;SDS011;34915;52.926;11.116;2022-10-31T01:07:13;8.77;;;4.40;;
49103;SDS011;34915;52.926;11.116;2022-10-31T01:09:39;7.87;;;3.73;;
49103;SDS011;34915;52.926;11.116;2022-10-31T01:12:08;8.20;;;4.63;;
49103;SDS011;34915;52.926;11.116;2022-10-31T01:14:34;7.63;;;4.33;;
49103;SDS011;34915;52.926;11.116;2022-10-31T01:17:03;7.97;;;4.13;;
49103;SDS011;34915;52.926;11.116;2022-10-31T01:19:33;6.27;;;3.63;;
49103;SDS011;34915;52.926;11.116;2022-10-31T01:22:02;6.17;;;4.37;;
49103;SDS011;34915;52.926;11.116;2022-10-31T01:24:27;6.57;;;3.67;;
49103;SDS011;34915;52.926;11.116;2022-10-31T01:26:53;10.13;;;3.73;;
49103;SDS011;34915;52.926;11.116;2022-10-31T01:29:19;7.43;;;3.90;;
49103;SDS011;34915;52.926;11.116;2022-10-31T01:31:44;7.27;;;3.70;;
49103;SDS011;34915;52.926;11.116;2022-10-31T01:34:14;9.80;;;4.13;;
49103;SDS011;34915;52.926;11.116;2022-10-31T01:36:41;5.77;;;3.70;;
49103;SDS011;34915;52.926;11.116;2022-10-31T01:39:13;7.57;;;3.77;;
49103;SDS011;34915;52.926;11.116;2022-10-31T01:41:46;5.87;;;3.30;;
49103;SDS011;34915;52.926;11.116;2022-10-31T01:49:33;5.47;;;3.37;;
49103;SDS011;34915;52.926;11.116;2022-10-31T01:52:04;7.20;;;4.20;;
49103;SDS011;34915;52.926;11.116;2022-10-31T01:54:40;6.77;;;3.40;;
49103;SDS011;34915;52.926;11.116;2022-10-31T01:57:08;5.23;;;3.03;;
49103;SDS011;34915;52.926;11.116;2022-10-31T01:59:37;7.03;;;4.00;;
49103;SDS011;34915;52.926;11.116;2022-10-31T02:02:08;6.10;;;3.90;;
49103;SDS011;34915;52.926;11.116;2022-10-31T02:04:35;5.77;;;4.27;;
49103;SDS011;34915;52.926;11.116;2022-10-31T02:07:02;5.17;;;4.07;;
49103;SDS011;34915;52.926;11.116;2022-10-31T02:09:32;6.83;;;4.10;;
49103;SDS011;34915;52.926;11.116;2022-10-31T02:11:59;9.77;;;5.10;;
49103;SDS011;34915;52.926;11.116;2022-10-31T02:14:28;7.33;;;4.53;;
49103;SDS011;34915;52.926;11.116;2022-10-31T02:16:56;6.37;;;4.63;;
49103;SDS011;34915;52.926;11.116;2022-10-31T02:22:26;7.87;;;4.43;;
49103;SDS011;34915;52.926;11.116;2022-10-31T02:33:40;7.03;;;4.60;;
49103;SDS011;34915;52.926;11.116;2022-10-31T02:43:54;6.17;;;4.47;;
49103;SDS011;34915;52.926;11.116;2022-10-31T02:46:27;7.00;;;4.13;;
49103;SDS011;34915;52.926;11.116;2022-10-31T02:49:00;5.07;;;3.87;;
49103;SDS011;34915;52.926;11.116;2022-10-31T02:51:38;9.47;;;4.87;;
49103;SDS011;34915;52.926;11.116;2022-10-31T02:54:04;7.20;;;5.30;;
49103;SDS011;34915;52.926;11.116;2022-10-31T02:56:30;8.20;;;5.00;;
49103;SDS011;34915;52.926;11.116;2022-10-31T02:58:59;8.73;;;5.50;;
49103;SDS011;34915;52.926;11.116;2022-10-31T03:15:43;10.13;;;6.40;;
49103;SDS011;34915;52.926;11.116;2022-10-31T03:18:14;13.47;;;6.67;;
49103;SDS011;34915;52.926;11.116;2022-10-31T03:20:57;8.37;;;5.93;;
49103;SDS011;34915;52.926;11.116;2022-10-31T03:23:32;10.07;;;6.73;;
49103;SDS011;34915;52.926;11.116;2022-10-31T03:26:01;15.30;;;7.63;;
49103;SDS011;34915;52.926;11.116;2022-10-31T03:28:34;13.80;;;6.67;;
49103;SDS011;34915;52.926;11.116;2022-10-31T03:31:07;9.57;;;6.83;;
49103;SDS011;34915;52.926;11.116;2022-10-31T03:33:36;14.70;;;7.30;;
49103;SDS011;34915;52.926;11.116;2022-10-31T03:36:04;11.33;;;7.67;;
49103;SDS011;34915;52.926;11.116;2022-10-31T03:38:34;13.97;;;6.23;;
49103;SDS011;34915;52.926;11.116;2022-10-31T03:41:01;16.37;;;7.50;;
49103;SDS011;34915;52.926;11.116;2022-10-31T03:43:32;13.60;;;7.37;;
49103;SDS011;34915;52.926;11.116;2022-10-31T03:46:03;16.77;;;6.73;;
49103;SDS011;34915;52.926;11.116;2022-10-31T03:48:29;11.03;;;6.60;;
49103;SDS011;34915;52.926;11.116;2022-10-31T03:53:30;13.13;;;7.57;;
49103;SDS011;34915;52.926;11.116;2022-10-31T03:55:59;11.70;;;7.43;;
49103;SDS011;34915;52.926;11.116;2022-10-31T03:58:35;12.30;;;7.50;;
49103;SDS011;34915;52.926;11.116;2022-10-31T04:01:09;15.80;;;7.77;;
49103;SDS011;34915;52.926;11.116;2022-10-31T04:03:39;15.27;;;7.97;;
49103;SDS011;34915;52.926;11.116;2022-10-31T04:06:08;11.30;;;7.93;;
49103;SDS011;34915;52.926;11.116;2022-10-31T04:08:40;20.23;;;8.33;;
49103;SDS011;34915;52.926;11.116;2022-10-31T04:11:15;13.30;;;7.73;;
49103;SDS011;34915;52.926;11.116;2022-10-31T04:13:45;13.47;;;8.10;;
49103;SDS011;34915;52.926;11.116;2022-10-31T04:16:16;15.90;;;8.77;;
49103;SDS011;34915;52.926;11.116;2022-10-31T04:18:43;11.87;;;8.50;;
49103;SDS011;34915;52.926;11.116;2022-10-31T04:21:09;15.47;;;8.33;;
49103;SDS011;34915;52.926;11.116;2022-10-31T04:23:35;17.80;;;8.80;;
49103;SDS011;34915;52.926;11.116;2022-10-31T04:26:01;15.63;;;8.47;;
49103;SDS011;34915;52.926;11.116;2022-10-31T04:28:29;18.13;;;8.07;;
49103;SDS011;34915;52.926;11.116;2022-10-31T04:30:58;16.90;;;8.73;;
49103;SDS011;34915;52.926;11.116;2022-10-31T04:33:24;16.87;;;8.23;;
49103;SDS011;34915;52.926;11.116;2022-10-31T04:35:49;13.80;;;8.87;;
49103;SDS011;34915;52.926;11.116;2022-10-31T04:38:15;26.27;;;8.43;;
49103;SDS011;34915;52.926;11.116;2022-10-31T04:40:41;17.33;;;9.10;;
49103;SDS011;34915;52.926;11.116;2022-10-31T04:43:07;19.27;;;8.13;;
49103;SDS011;34915;52.926;11.116;2022-10-31T04:45:36;12.47;;;7.93;;
49103;SDS011;34915;52.926;11.116;2022-10-31T04:48:06;16.97;;;8.77;;
49103;SDS011;34915;52.926;11.116;2022-10-31T04:50:31;16.70;;;8.53;;
49103;SDS011;34915;52.926;11.116;2022-10-31T04:53:00;17.77;;;9.17;;
49103;SDS011;34915;52.926;11.116;2022-10-31T04:55:29;17.03;;;9.10;;
49103;SDS011;34915;52.926;11.116;2022-10-31T04:57:55;14.30;;;8.27;;
49103;SDS011;34915;52.926;11.116;2022-10-31T05:00:23;13.30;;;7.47;;
49103;SDS011;34915;52.926;11.116;2022-10-31T05:02:56;16.40;;;9.50;;
49103;SDS011;34915;52.926;11.116;2022-10-31T05:05:23;19.40;;;10.67;;
49103;SDS011;34915;52.926;11.116;2022-10-31T05:07:54;17.83;;;8.80;;
49103;SDS011;34915;52.926;11.116;2022-10-31T05:10:22;18.70;;;9.03;;
49103;SDS011;34915;52.926;11.116;2022-10-31T05:12:51;16.90;;;8.93;;
49103;SDS011;34915;52.926;11.116;2022-10-31T05:15:18;16.90;;;8.93;;
49103;SDS011;34915;52.926;11.116;2022-10-31T05:17:45;16.80;;;8.60;;
49103;SDS011;34915;52.926;11.116;2022-10-31T05:20:11;19.27;;;8.80;;
49103;SDS011;34915;52.926;11.116;2022-10-31T05:22:42;14.43;;;8.03;;
49103;SDS011;34915;52.926;11.116;2022-10-31T05:25:09;16.57;;;9.23;;
49103;SDS011;34915;52.926;11.116;2022-10-31T05:27:35;21.93;;;9.43;;
49103;SDS011;34915;52.926;11.116;2022-10-31T05:30:04;11.63;;;7.77;;
49103;SDS011;34915;52.926;11.116;2022-10-31T05:35:10;14.50;;;8.03;;
49103;SDS011;34915;52.926;11.116;2022-10-31T05:37:37;13.77;;;8.47;;
49103;SDS011;34915;52.926;11.116;2022-10-31T05:40:07;13.63;;;8.17;;
49103;SDS011;34915;52.926;11.116;2022-10-31T05:42:37;13.53;;;9.00;;
49103;SDS011;34915;52.926;11.116;2022-10-31T05:45:04;14.93;;;9.23;;
49103;SDS011;34915;52.926;11.116;2022-10-31T05:47:30;15.23;;;8.33;;
49103;SDS011;34915;52.926;11.116;2022-10-31T05:49:58;13.57;;;8.40;;
49103;SDS011;34915;52.926;11.116;2022-10-31T05:52:24;15.73;;;8.73;;
49103;SDS011;34915;52.926;11.116;2022-10-31T05:54:49;15.43;;;9.60;;
49103;SDS011;34915;52.926;11.116;2022-10-31T05:57:18;17.93;;;10.57;;
49103;SDS011;34915;52.926;11.116;2022-10-31T05:59:44;14.93;;;8.97;;
49103;SDS011;34915;52.926;11.116;2022-10-31T06:02:12;24.47;;;10.07;;
49103;SDS011;34915;52.926;11.116;2022-10-31T06:04:41;14.20;;;8.73;;
49103;SDS011;34915;52.926;11.116;2022-10-31T06:07:06;15.07;;;8.10;;
49103;SDS011;34915;52.926;11.116;2022-10-31T06:09:32;16.70;;;9.17;;
49103;SDS011;34915;52.926;11.116;2022-10-31T06:12:00;15.73;;;7.80;;
49103;SDS011;34915;52.926;11.116;2022-10-31T06:14:26;13.77;;;8.43;;
49103;SDS011;34915;52.926;11.116;2022-10-31T06:16:51;13.80;;;7.50;;
49103;SDS011;34915;52.926;11.116;2022-10-31T06:19:22;12.77;;;8.37;;
49103;SDS011;34915;52.926;11.116;2022-10-31T06:21:48;16.27;;;8.73;;
49103;SDS011;34915;52.926;11.116;2022-10-31T06:24:13;14.30;;;8.33;;
49103;SDS011;34915;52.926;11.116;2022-10-31T06:26:40;15.73;;;9.40;;
49103;SDS011;34915;52.926;11.116;2022-10-31T06:29:09;20.40;;;9.87;;
49103;SDS011;34915;52.926;11.116;2022-10-31T06:31:34;17.80;;;9.60;;
49103;SDS011;34915;52.926;11.116;2022-10-31T06:34:00;20.50;;;9.90;;
49103;SDS011;34915;52.926;11.116;2022-10-31T06:36:29;20.23;;;9.17;;
49103;SDS011;34915;52.926;11.116;2022-10-31T06:38:54;17.40;;;9.73;;
49103;SDS011;34915;52.926;11.116;2022-10-31T06:41:20;17.13;;;9.73;;
49103;SDS011;34915;52.926;11.116;2022-10-31T06:43:46;14.07;;;8.93;;
49103;SDS011;34915;52.926;11.116;2022-10-31T06:46:15;21.97;;;9.33;;
49103;SDS011;34915;52.926;11.116;2022-10-31T06:48:41;19.33;;;9.57;;
49103;SDS011;34915;52.926;11.116;2022-10-31T06:51:07;22.90;;;10.43;;
49103;SDS011;34915;52.926;11.116;2022-10-31T06:53:35;17.10;;;9.83;;
49103;SDS011;34915;52.926;11.116;2022-10-31T06:56:01;19.50;;;10.67;;
49103;SDS011;34915;52.926;11.116;2022-10-31T06:58:30;18.27;;;9.10;;
49103;SDS011;34915;52.926;11.116;2022-10-31T07:00:59;20.53;;;8.97;;
49103;SDS011;34915;52.926;11.116;2022-10-31T07:03:25;19.17;;;10.27;;
49103;SDS011;34915;52.926;11.116;2022-10-31T07:05:56;21.07;;;10.27;;
49103;SDS011;34915;52.926;11.116;2022-10-31T07:08:25;16.23;;;9.03;;
49103;SDS011;34915;52.926;11.116;2022-10-31T07:10:55;15.03;;;9.33;;
49103;SDS011;34915;52.926;11.116;2022-10-31T07:13:25;22.53;;;9.27;;
49103;SDS011;34915;52.926;11.116;2022-10-31T07:15:54;20.37;;;10.77;;
49103;SDS011;34915;52.926;11.116;2022-10-31T07:18:27;20.07;;;10.70;;
49103;SDS011;34915;52.926;11.116;2022-10-31T07:20:56;19.77;;;10.70;;
49103;SDS011;34915;52.926;11.116;2022-10-31T07:23:24;20.97;;;11.27;;
49103;SDS011;34915;52.926;11.116;2022-10-31T07:25:54;26.23;;;9.60;;
49103;SDS011;34915;52.926;11.116;2022-10-31T07:28:21;22.97;;;10.60;;
49103;SDS011;34915;52.926;11.116;2022-10-31T07:30:51;17.00;;;9.23;;
49103;SDS011;34915;52.926;11.116;2022-10-31T07:33:18;23.27;;;10.63;;
49103;SDS011;34915;52.926;11.116;2022-10-31T07:35:46;22.43;;;11.23;;
49103;SDS011;34915;52.926;11.116;2022-10-31T07:38:13;20.43;;;9.07;;
49103;SDS011;34915;52.926;11.116;2022-10-31T07:40:42;21.37;;;9.83;;
49103;SDS011;34915;52.926;11.116;2022-10-31T07:43:10;23.27;;;9.73;;
49103;SDS011;34915;52.926;11.116;2022-10-31T07:45:37;18.33;;;8.60;;
49103;SDS011;34915;52.926;11.116;2022-10-31T07:48:05;17.90;;;8.93;;
49103;SDS011;34915;52.926;11.116;2022-10-31T07:50:34;40.57;;;15.03;;
49103;SDS011;34915;52.926;11.116;2022-10-31T07:53:01;21.97;;;10.40;;
49103;SDS011;34915;52.926;11.116;2022-10-31T07:55:34;20.03;;;7.53;;
49103;SDS011;34915;52.926;11.116;2022-10-31T07:58:05;21.83;;;9.67;;
49103;SDS011;34915;52.926;11.116;2022-10-31T08:00:35;16.47;;;8.47;;
49103;SDS011;34915;52.926;11.116;2022-10-31T08:05:32;25.40;;;10.23;;
49103;SDS011;34915;52.926;11.116;2022-10-31T08:08:02;18.17;;;8.37;;
49103;SDS011;34915;52.926;11.116;2022-10-31T08:10:32;17.83;;;8.80;;
49103;SDS011;34915;52.926;11.116;2022-10-31T08:15:38;17.13;;;8.73;;
49103;SDS011;34915;52.926;11.116;2022-10-31T08:18:11;24.60;;;9.50;;
49103;SDS011;34915;52.926;11.116;2022-10-31T08:20:41;20.03;;;7.77;;
49103;SDS011;34915;52.926;11.116;2022-10-31T08:23:09;18.10;;;8.67;;
49103;SDS011;34915;52.926;11.116;2022-10-31T08:25:39;15.77;;;7.80;;
49103;SDS011;34915;52.926;11.116;2022-10-31T08:28:08;16.30;;;7.30;;
49103;SDS011;34915;52.926;11.116;2022-10-31T08:30:37;19.67;;;8.67;;
49103;SDS011;34915;52.926;11.116;2022-10-31T08:33:08;18.97;;;8.60;;
49103;SDS011;34915;52.926;11.116;2022-10-31T08:35:36;15.63;;;7.23;;
49103;SDS011;34915;52.926;11.116;2022-10-31T08:38:05;20.13;;;7.73;;
49103;SDS011;34915;52.926;11.116;2022-10-31T08:40:32;17.07;;;7.97;;
49103;SDS011;34915;52.926;11.116;2022-10-31T08:43:02;17.13;;;8.93;;
49103;SDS011;34915;52.926;11.116;2022-10-31T08:45:33;16.10;;;7.57;;
49103;SDS011;34915;52.926;11.116;2022-10-31T08:48:03;15.20;;;7.23;;
49103;SDS011;34915;52.926;11.116;2022-10-31T08:50:31;19.30;;;8.30;;
49103;SDS011;34915;52.926;11.116;2022-10-31T08:53:09;13.70;;;7.07;;
49103;SDS011;34915;52.926;11.116;2022-10-31T08:55:37;23.37;;;8.40;;
49103;SDS011;34915;52.926;11.116;2022-10-31T08:58:09;17.83;;;8.33;;
49103;SDS011;34915;52.926;11.116;2022-10-31T09:00:37;12.47;;;7.47;;
49103;SDS011;34915;52.926;11.116;2022-10-31T09:03:04;14.23;;;6.87;;
49103;SDS011;34915;52.926;11.116;2022-10-31T09:05:32;18.47;;;7.90;;
49103;SDS011;34915;52.926;11.116;2022-10-31T09:07:58;17.77;;;7.73;;
49103;SDS011;34915;52.926;11.116;2022-10-31T09:10:25;14.17;;;7.77;;
49103;SDS011;34915;52.926;11.116;2022-10-31T09:15:23;13.50;;;7.27;;
49103;SDS011;34915;52.926;11.116;2022-10-31T09:17:50;13.40;;;6.57;;
49103;SDS011;34915;52.926;11.116;2022-10-31T09:20:15;16.47;;;7.80;;
49103;SDS011;34915;52.926;11.116;2022-10-31T09:22:41;20.10;;;7.83;;
49103;SDS011;34915;52.926;11.116;2022-10-31T09:25:10;15.13;;;7.47;;
49103;SDS011;34915;52.926;11.116;2022-10-31T09:27:39;17.33;;;7.60;;
49103;SDS011;34915;52.926;11.116;2022-10-31T09:30:04;15.90;;;7.47;;
49103;SDS011;34915;52.926;11.116;2022-10-31T09:32:34;12.23;;;6.93;;
49103;SDS011;34915;52.926;11.116;2022-10-31T09:34:59;14.33;;;7.73;;
49103;SDS011;34915;52.926;11.116;2022-10-31T09:37:28;11.33;;;6.43;;
49103;SDS011;34915;52.926;11.116;2022-10-31T09:39:57;12.10;;;5.97;;
49103;SDS011;34915;52.926;11.116;2022-10-31T09:50:21;13.73;;;6.50;;
49103;SDS011;34915;52.926;11.116;2022-10-31T09:53:02;12.03;;;6.10;;
49103;SDS011;34915;52.926;11.116;2022-10-31T09:55:37;13.23;;;6.30;;
49103;SDS011;34915;52.926;11.116;2022-10-31T09:58:28;11.37;;;6.80;;
49103;SDS011;34915;52.926;11.116;2022-10-31T10:00:56;11.53;;;6.77;;
49103;SDS011;34915;52.926;11.116;2022-10-31T10:03:27;11.03;;;6.23;;
49103;SDS011;34915;52.926;11.116;2022-10-31T10:06:27;15.90;;;6.90;;
49103;SDS011;34915;52.926;11.116;2022-10-31T10:08:55;13.57;;;6.37;;
49103;SDS011;34915;52.926;11.116;2022-10-31T10:27:47;12.93;;;7.00;;
49103;SDS011;34915;52.926;11.116;2022-10-31T10:30:21;10.70;;;6.77;;
49103;SDS011;34915;52.926;11.116;2022-10-31T10:32:54;10.83;;;6.20;;
49103;SDS011;34915;52.926;11.116;2022-10-31T10:35:24;7.93;;;5.30;;
49103;SDS011;34915;52.926;11.116;2022-10-31T10:38:02;10.17;;;5.73;;
49103;SDS011;34915;52.926;11.116;2022-10-31T10:40:37;14.67;;;5.60;;
49103;SDS011;34915;52.926;11.116;2022-10-31T10:57:41;8.90;;;5.13;;
49103;SDS011;34915;52.926;11.116;2022-10-31T11:02:56;10.30;;;6.17;;
49103;SDS011;34915;52.926;11.116;2022-10-31T11:08:25;10.23;;;5.37;;
49103;SDS011;34915;52.926;11.116;2022-10-31T11:13:33;7.60;;;5.23;;
49103;SDS011;34915;52.926;11.116;2022-10-31T11:16:04;10.47;;;5.63;;
49103;SDS011;34915;52.926;11.116;2022-10-31T11:18:42;10.53;;;5.23;;
49103;SDS011;34915;52.926;11.116;2022-10-31T11:21:24;11.13;;;5.97;;
49103;SDS011;34915;52.926;11.116;2022-10-31T11:24:03;12.03;;;6.33;;
49103;SDS011;34915;52.926;11.116;2022-10-31T11:26:29;13.47;;;6.10;;
49103;SDS011;34915;52.926;11.116;2022-10-31T11:28:59;10.67;;;5.80;;
49103;SDS011;34915;52.926;11.116;2022-10-31T11:31:28;12.03;;;5.70;;
49103;SDS011;34915;52.926;11.116;2022-10-31T11:34:05;11.90;;;6.37;;
49103;SDS011;34915;52.926;11.116;2022-10-31T11:36:42;9.50;;;6.33;;
49103;SDS011;34915;52.926;11.116;2022-10-31T11:39:20;12.77;;;6.03;;
49103;SDS011;34915;52.926;11.116;2022-10-31T11:41:49;10.73;;;5.57;;
49103;SDS011;34915;52.926;11.116;2022-10-31T11:44:21;12.27;;;5.67;;
49103;SDS011;34915;52.926;11.116;2022-10-31T11:46:51;10.23;;;5.40;;
49103;SDS011;34915;52.926;11.116;2022-10-31T11:52:08;9.03;;;4.70;;
49103;SDS011;34915;52.926;11.116;2022-10-31T11:54:42;11.17;;;5.77;;
49103;SDS011;34915;52.926;11.116;2022-10-31T11:57:43;11.90;;;5.97;;
49103;SDS011;34915;52.926;11.116;2022-10-31T12:02:45;13.20;;;5.87;;
49103;SDS011;34915;52.926;11.116;2022-10-31T12:05:16;9.40;;;5.13;;
49103;SDS011;34915;52.926;11.116;2022-10-31T12:07:45;10.73;;;4.90;;
49103;SDS011;34915;52.926;11.116;2022-10-31T12:10:11;8.23;;;5.10;;
49103;SDS011;34915;52.926;11.116;2022-10-31T12:18:58;11.07;;;5.47;;
49103;SDS011;34915;52.926;11.116;2022-10-31T12:29:49;9.17;;;4.97;;
49103;SDS011;34915;52.926;11.116;2022-10-31T12:32:30;9.40;;;5.63;;
49103;SDS011;34915;52.926;11.116;2022-10-31T12:43:33;10.23;;;5.67;;
49103;SDS011;34915;52.926;11.116;2022-10-31T12:46:15;11.47;;;5.53;;
49103;SDS011;34915;52.926;11.116;2022-10-31T12:54:39;10.60;;;5.33;;
49103;SDS011;34915;52.926;11.116;2022-10-31T12:57:30;10.87;;;5.53;;
49103;SDS011;34915;52.926;11.116;2022-10-31T13:00:05;10.30;;;5.20;;
49103;SDS011;34915;52.926;11.116;2022-10-31T13:05:21;13.20;;;6.43;;
49103;SDS011;34915;52.926;11.116;2022-10-31T13:13:18;10.77;;;5.87;;
49103;SDS011;34915;52.926;11.116;2022-10-31T13:15:52;13.10;;;6.13;;
49103;SDS011;34915;52.926;11.116;2022-10-31T13:18:42;9.83;;;5.70;;
49103;SDS011;34915;52.926;11.116;2022-10-31T13:21:15;10.83;;;4.70;;
49103;SDS011;34915;52.926;11.116;2022-10-31T13:23:45;6.70;;;4.60;;
49103;SDS011;34915;52.926;11.116;2022-10-31T13:26:21;10.23;;;5.20;;
49103;SDS011;34915;52.926;11.116;2022-10-31T13:31:53;11.67;;;6.23;;
49103;SDS011;34915;52.926;11.116;2022-10-31T13:34:36;10.50;;;5.47;;
49103;SDS011;34915;52.926;11.116;2022-10-31T13:39:46;11.60;;;6.27;;
49103;SDS011;34915;52.926;11.116;2022-10-31T13:45:27;13.07;;;5.87;;
49103;SDS011;34915;52.926;11.116;2022-10-31T13:48:01;11.63;;;6.33;;
49103;SDS011;34915;52.926;11.116;2022-10-31T13:50:57;13.37;;;5.23;;
49103;SDS011;34915;52.926;11.116;2022-10-31T13:53:37;9.17;;;5.03;;
49103;SDS011;34915;52.926;11.116;2022-10-31T13:56:14;12.33;;;5.50;;
49103;SDS011;34915;52.926;11.116;2022-10-31T13:58:54;9.23;;;5.63;;
49103;SDS011;34915;52.926;11.116;2022-10-31T14:01:57;9.97;;;5.50;;
49103;SDS011;34915;52.926;11.116;2022-10-31T14:04:35;11.53;;;5.37;;
49103;SDS011;34915;52.926;11.116;2022-10-31T14:12:25;9.53;;;5.70;;
49103;SDS011;34915;52.926;11.116;2022-10-31T14:14:52;8.00;;;5.00;;
49103;SDS011;34915;52.926;11.116;2022-10-31T14:17:22;11.40;;;5.93;;
49103;SDS011;34915;52.926;11.116;2022-10-31T14:22:40;9.13;;;5.90;;
49103;SDS011;34915;52.926;11.116;2022-10-31T14:25:29;13.80;;;6.40;;
49103;SDS011;34915;52.926;11.116;2022-10-31T14:27:59;9.47;;;6.23;;
49103;SDS011;34915;52.926;11.116;2022-10-31T14:30:53;14.73;;;6.47;;
49103;SDS011;34915;52.926;11.116;2022-10-31T14:33:26;15.47;;;6.93;;
49103;SDS011;34915;52.926;11.116;2022-10-31T14:36:06;12.97;;;6.87;;
49103;SDS011;34915;52.926;11.116;2022-10-31T14:50:09;11.43;;;6.33;;
49103;SDS011;34915;52.926;11.116;2022-10-31T14:52:49;9.57;;;5.90;;
49103;SDS011;34915;52.926;11.116;2022-10-31T14:55:21;14.17;;;6.07;;
49103;SDS011;34915;52.926;11.116;2022-10-31T14:58:12;10.03;;;5.70;;
49103;SDS011;34915;52.926;11.116;2022-10-31T15:00:44;12.27;;;6.33;;
49103;SDS011;34915;52.926;11.116;2022-10-31T15:03:16;11.13;;;6.20;;
49103;SDS011;34915;52.926;11.116;2022-10-31T15:05:55;15.60;;;7.90;;
49103;SDS011;34915;52.926;11.116;2022-10-31T15:08:34;11.97;;;6.63;;
49103;SDS011;34915;52.926;11.116;2022-10-31T15:11:20;11.47;;;6.83;;
49103;SDS011;34915;52.926;11.116;2022-10-31T15:13:50;12.83;;;6.60;;
49103;SDS011;34915;52.926;11.116;2022-10-31T15:16:21;12.03;;;7.73;;
49103;SDS011;34915;52.926;11.116;2022-10-31T15:18:57;9.97;;;6.23;;
49103;SDS011;34915;52.926;11.116;2022-10-31T15:21:26;11.80;;;7.10;;
49103;SDS011;34915;52.926;11.116;2022-10-31T15:23:59;14.77;;;7.53;;
49103;SDS011;34915;52.926;11.116;2022-10-31T15:26:27;12.47;;;7.20;;
49103;SDS011;34915;52.926;11.116;2022-10-31T15:29:05;11.17;;;6.50;;
49103;SDS011;34915;52.926;11.116;2022-10-31T15:31:37;15.50;;;7.57;;
49103;SDS011;34915;52.926;11.116;2022-10-31T15:34:03;14.30;;;7.03;;
49103;SDS011;34915;52.926;11.116;2022-10-31T15:36:47;16.73;;;7.53;;
49103;SDS011;34915;52.926;11.116;2022-10-31T15:39:14;13.60;;;7.17;;
49103;SDS011;34915;52.926;11.116;2022-10-31T15:41:57;13.97;;;6.97;;
49103;SDS011;34915;52.926;11.116;2022-10-31T15:44:28;15.67;;;7.27;;
49103;SDS011;34915;52.926;11.116;2022-10-31T15:47:01;12.60;;;6.40;;
49103;SDS011;34915;52.926;11.116;2022-10-31T15:57:57;12.93;;;6.97;;
49103;SDS011;34915;52.926;11.116;2022-10-31T16:00:30;15.50;;;7.97;;
49103;SDS011;34915;52.926;11.116;2022-10-31T16:05:45;17.67;;;7.37;;
49103;SDS011;34915;52.926;11.116;2022-10-31T16:13:30;14.10;;;7.40;;
49103;SDS011;34915;52.926;11.116;2022-10-31T16:16:01;14.60;;;7.20;;
49103;SDS011;34915;52.926;11.116;2022-10-31T16:18:50;11.27;;;6.80;;
49103;SDS011;34915;52.926;11.116;2022-10-31T16:21:26;12.07;;;6.43;;
49103;SDS011;34915;52.926;11.116;2022-10-31T16:24:21;14.00;;;6.20;;
49103;SDS011;34915;52.926;11.116;2022-10-31T16:26:52;16.77;;;7.13;;
49103;SDS011;34915;52.926;11.116;2022-10-31T16:29:28;15.03;;;6.77;;
49103;SDS011;34915;52.926;11.116;2022-10-31T16:35:18;11.60;;;6.67;;
49103;SDS011;34915;52.926;11.116;2022-10-31T16:37:44;12.17;;;6.27;;
49103;SDS011;34915;52.926;11.116;2022-10-31T16:40:10;16.83;;;8.33;;
49103;SDS011;34915;52.926;11.116;2022-10-31T16:42:41;17.43;;;7.37;;
49103;SDS011;34915;52.926;11.116;2022-10-31T16:45:15;14.63;;;7.23;;
49103;SDS011;34915;52.926;11.116;2022-10-31T16:47:43;12.00;;;6.23;;
49103;SDS011;34915;52.926;11.116;2022-10-31T16:50:12;15.40;;;7.60;;
49103;SDS011;34915;52.926;11.116;2022-10-31T16:52:40;17.43;;;7.53;;
49103;SDS011;34915;52.926;11.116;2022-10-31T16:55:10;16.17;;;7.43;;
49103;SDS011;34915;52.926;11.116;2022-10-31T16:57:40;14.53;;;6.90;;
49103;SDS011;34915;52.926;11.116;2022-10-31T17:00:11;13.67;;;6.80;;
49103;SDS011;34915;52.926;11.116;2022-10-31T17:02:38;14.43;;;6.83;;
49103;SDS011;34915;52.926;11.116;2022-10-31T17:05:12;18.70;;;8.27;;
49103;SDS011;34915;52.926;11.116;2022-10-31T17:07:42;14.27;;;7.43;;
49103;SDS011;34915;52.926;11.116;2022-10-31T17:10:08;15.70;;;6.90;;
49103;SDS011;34915;52.926;11.116;2022-10-31T17:12:39;13.43;;;7.37;;
49103;SDS011;34915;52.926;11.116;2022-10-31T17:15:20;15.37;;;6.67;;
49103;SDS011;34915;52.926;11.116;2022-10-31T17:17:52;16.80;;;7.07;;
49103;SDS011;34915;52.926;11.116;2022-10-31T17:20:26;16.67;;;7.97;;
49103;SDS011;34915;52.926;11.116;2022-10-31T17:22:54;17.57;;;8.13;;
49103;SDS011;34915;52.926;11.116;2022-10-31T17:25:23;19.33;;;7.93;;
49103;SDS011;34915;52.926;11.116;2022-10-31T17:27:53;18.23;;;7.87;;
49103;SDS011;34915;52.926;11.116;2022-10-31T17:30:19;19.80;;;8.57;;
49103;SDS011;34915;52.926;11.116;2022-10-31T17:32:47;18.40;;;10.10;;
49103;SDS011;34915;52.926;11.116;2022-10-31T17:35:13;18.37;;;8.87;;
49103;SDS011;34915;52.926;11.116;2022-10-31T17:37:40;21.80;;;8.33;;
49103;SDS011;34915;52.926;11.116;2022-10-31T17:40:11;19.97;;;8.73;;
49103;SDS011;34915;52.926;11.116;2022-10-31T17:42:38;19.77;;;8.33;;
49103;SDS011;34915;52.926;11.116;2022-10-31T17:45:04;17.33;;;8.10;;
49103;SDS011;34915;52.926;11.116;2022-10-31T17:47:36;14.40;;;7.20;;
49103;SDS011;34915;52.926;11.116;2022-10-31T17:50:05;15.90;;;6.93;;
49103;SDS011;34915;52.926;11.116;2022-10-31T17:52:31;11.33;;;6.73;;